Time;durP1;ratioP1;P1;durP2;ratioP2;P2;SDS_P1;SDS_P2;PMS_P1;PMS_P2;Temp;Humidity;BMP_temperature;BMP_pressure;BME280_temperature;BME280_humidity;BME280_pressure;Samples;Min_cycle;Max_cycle;Signal;HPM_P1;HPM_P2
2022/04/01 00:00:10;;;;;;;;;;;3.90;99.90;;;;;;5032725;28;19952;-84
2022/04/01 00:02:37;;;;;;;;;;;3.90;99.90;;;;;;5049179;28;19920;-84
2022/04/01 00:05:03;;;;;;;;;;;3.90;99.90;;;;;;5063150;28;19912;-83
2022/04/01 00:07:28;;;;;;;;;;;3.90;99.90;;;;;;5030656;28;19983;-83
2022/04/01 00:09:54;;;;;;;;;;;3.90;99.90;;;;;;5061045;28;19924;-83
2022/04/01 00:12:19;;;;;;;;;;;3.90;99.90;;;;;;5036195;28;19925;-83
2022/04/01 00:14:45;;;;;;;;;;;3.80;99.90;;;;;;5049011;28;20027;-84
2022/04/01 00:17:10;;;;;;;;;;;3.80;99.90;;;;;;5053264;28;19916;-84
2022/04/01 00:19:36;;;;;;;;;;;3.80;99.90;;;;;;5055216;28;19909;-83
2022/04/01 00:22:01;;;;;;;;;;;3.80;99.90;;;;;;5056324;28;20403;-83
2022/04/01 00:24:27;;;;;;;;;;;3.80;99.90;;;;;;5063805;28;19921;-83
2022/04/01 00:26:52;;;;;;;;;;;3.70;99.90;;;;;;5054153;28;19948;-83
2022/04/01 00:29:20;;;;;;;;;;;3.70;99.90;;;;;;5062046;28;19959;-84
2022/04/01 00:31:46;;;;;;;;;;;3.70;99.90;;;;;;5073840;28;19938;-83
2022/04/01 00:34:15;;;;;;;;;;;3.70;99.90;;;;;;5068748;28;19959;-84
2022/04/01 00:36:41;;;;;;;;;;;3.70;99.90;;;;;;5057919;28;20292;-83
2022/04/01 00:39:06;;;;;;;;;;;3.70;99.90;;;;;;5058936;28;19913;-84
2022/04/01 00:41:32;;;;;;;;;;;3.70;99.90;;;;;;5054943;28;19921;-83
2022/04/01 00:44:17;;;;;;;;;;;3.70;99.90;;;;;;5069491;28;19924;-84
2022/04/01 00:46:43;;;;;;;;;;;3.70;99.90;;;;;;5055875;28;20626;-84
2022/04/01 00:49:09;;;;;;;;;;;3.80;99.90;;;;;;5063055;28;19923;-83
2022/04/01 00:51:34;;;;;;;;;;;3.70;99.90;;;;;;5063170;28;19916;-83
2022/04/01 00:54:00;;;;;;;;;;;3.70;99.90;;;;;;5058896;28;20369;-84
2022/04/01 00:56:29;;;;;;;;;;;3.60;99.90;;;;;;5069290;28;19916;-83
2022/04/01 00:58:54;;;;;;;;;;;3.60;99.90;;;;;;5070184;28;19925;-83
2022/04/01 01:01:20;;;;;;;;;;;3.60;99.90;;;;;;5056716;28;20498;-83
2022/04/01 01:03:45;;;;;;;;;;;3.60;99.90;;;;;;5072831;28;19917;-84
2022/04/01 01:06:11;;;;;;;;;;;3.60;99.90;;;;;;5073369;28;20010;-84
2022/04/01 01:08:37;;;;;;;;;;;3.60;99.90;;;;;;5077378;22;20299;-90
2022/04/01 01:11:02;;;;;;;;;;;3.60;99.90;;;;;;5025549;28;19921;-89
2022/04/01 01:13:29;;;;;;;;;;;3.60;99.90;;;;;;5051265;28;19982;-91
2022/04/01 01:15:56;;;;;;;;;;;3.60;99.90;;;;;;5023265;28;20400;-90
2022/04/01 01:18:22;;;;;;;;;;;3.60;99.90;;;;;;5028126;28;19940;-90
2022/04/01 01:20:48;;;;;;;;;;;3.60;99.90;;;;;;5001664;28;19924;-90
2022/04/01 01:23:13;;;;;;;;;;;3.60;99.90;;;;;;5016620;28;19967;-90
2022/04/01 01:25:39;;;;;;;;;;;3.60;99.90;;;;;;5025312;28;20399;-89
2022/04/01 01:28:06;;;;;;;;;;;3.60;99.90;;;;;;5027140;28;20292;-90
2022/04/01 01:30:32;;;;;;;;;;;3.60;99.90;;;;;;5032841;28;19928;-90
2022/04/01 01:32:58;;;;;;;;;;;3.60;99.90;;;;;;5023474;28;19918;-90
2022/04/01 01:35:23;;;;;;;;;;;3.60;99.90;;;;;;5020424;28;19940;-90
2022/04/01 01:37:49;;;;;;;;;;;3.60;99.90;;;;;;5023448;28;19963;-90
2022/04/01 01:40:15;;;;;;;;;;;3.60;99.90;;;;;;5015320;28;19924;-90
2022/04/01 01:42:40;;;;;;;;;;;3.70;99.90;;;;;;5028843;28;19928;-91
2022/04/01 01:45:06;;;;;;;;;;;3.70;99.90;;;;;;5023929;28;19964;-90
2022/04/01 01:47:32;;;;;;;;;;;3.70;99.90;;;;;;5029118;28;19949;-89
2022/04/01 01:55:27;;;;;;;;;;;3.70;99.90;;;;;;5021477;28;19932;-89
2022/04/01 01:57:53;;;;;;;;;;;3.70;99.90;;;;;;5020540;28;19943;-90
2022/04/01 02:00:22;;;;;;;;;;;3.70;99.90;;;;;;5000849;28;20007;-89
2022/04/01 02:02:48;;;;;;;;;;;3.70;99.90;;;;;;5018608;28;19952;-90
2022/04/01 02:05:16;;;;;;;;;;;3.60;99.90;;;;;;4999901;28;19949;-90
2022/04/01 02:07:41;;;;;;;;;;;3.60;99.90;;;;;;5017814;28;20113;-90
2022/04/01 02:10:07;;;;;;;;;;;3.60;99.90;;;;;;5009859;28;19921;-90
2022/04/01 02:12:32;;;;;;;;;;;3.60;99.90;;;;;;5010190;28;19917;-90
2022/04/01 02:14:59;;;;;;;;;;;3.60;99.90;;;;;;5012124;28;19917;-90
2022/04/01 02:17:24;;;;;;;;;;;3.60;99.90;;;;;;5013885;28;19971;-90
2022/04/01 02:19:50;;;;;;;;;;;3.60;99.90;;;;;;5028077;28;19921;-90
2022/04/01 02:22:16;;;;;;;;;;;3.60;99.90;;;;;;5021223;28;19966;-90
2022/04/01 02:24:41;;;;;;;;;;;3.60;99.90;;;;;;4998206;28;20282;-91
2022/04/01 02:27:07;;;;;;;;;;;3.60;99.90;;;;;;5027521;28;19921;-89
2022/04/01 02:29:33;;;;;;;;;;;3.60;99.90;;;;;;5015115;28;19921;-89
2022/04/01 02:31:58;;;;;;;;;;;3.60;99.90;;;;;;5026980;28;19923;-91
2022/04/01 02:34:25;;;;;;;;;;;3.60;99.90;;;;;;5024259;28;19925;-91
2022/04/01 02:36:51;;;;;;;;;;;3.60;99.90;;;;;;5023589;28;19914;-90
2022/04/01 02:39:17;;;;;;;;;;;3.60;99.90;;;;;;5020625;28;20432;-90
2022/04/01 02:41:43;;;;;;;;;;;3.60;99.90;;;;;;5028555;28;20427;-89
2022/04/01 02:44:08;;;;;;;;;;;3.60;99.90;;;;;;5021178;28;19913;-91
2022/04/01 02:46:44;;;;;;;;;;;3.60;99.90;;;;;;5019081;28;19920;-90
2022/04/01 02:49:11;;;;;;;;;;;3.60;99.90;;;;;;5026242;28;20276;-90
2022/04/01 02:51:37;;;;;;;;;;;3.60;99.90;;;;;;5016156;28;20395;-90
2022/04/01 02:54:06;;;;;;;;;;;3.50;99.90;;;;;;5010607;28;20014;-90
2022/04/01 02:56:32;;;;;;;;;;;3.50;99.90;;;;;;5022549;28;19917;-90
2022/04/01 02:58:59;;;;;;;;;;;3.50;99.90;;;;;;5028111;28;19983;-89
2022/04/01 03:01:25;;;;;;;;;;;3.50;99.90;;;;;;5028920;28;19924;-90
2022/04/01 03:03:50;;;;;;;;;;;3.50;99.90;;;;;;5021271;28;19916;-90
2022/04/01 03:06:16;;;;;;;;;;;3.50;99.90;;;;;;5021544;28;19918;-90
2022/04/01 03:08:43;;;;;;;;;;;3.50;99.90;;;;;;5019932;28;19916;-91
2022/04/01 03:11:09;;;;;;;;;;;3.50;99.90;;;;;;5013334;28;19967;-89
2022/04/01 03:13:34;;;;;;;;;;;3.50;99.90;;;;;;5019770;28;20384;-90
2022/04/01 03:16:00;;;;;;;;;;;3.50;99.90;;;;;;5012513;28;19957;-89
2022/04/01 03:18:25;;;;;;;;;;;3.50;99.90;;;;;;5015068;28;19921;-90
2022/04/01 03:20:51;;;;;;;;;;;3.50;99.90;;;;;;5022705;28;20016;-90
2022/04/01 03:23:16;;;;;;;;;;;3.50;99.90;;;;;;5015163;28;19997;-90
2022/04/01 03:25:42;;;;;;;;;;;3.50;99.90;;;;;;4997043;28;20384;-89
2022/04/01 03:28:07;;;;;;;;;;;3.50;99.90;;;;;;5027776;28;19925;-90
2022/04/01 03:30:33;;;;;;;;;;;3.50;99.90;;;;;;5002336;28;19941;-90
2022/04/01 03:32:58;;;;;;;;;;;3.50;99.90;;;;;;5020533;28;19995;-89
2022/04/01 03:35:24;;;;;;;;;;;3.50;99.90;;;;;;5022097;28;20373;-90
2022/04/01 03:37:50;;;;;;;;;;;3.50;99.90;;;;;;5021285;28;19921;-89
2022/04/01 03:40:16;;;;;;;;;;;3.60;99.90;;;;;;5020892;28;20356;-90
2022/04/01 03:42:44;;;;;;;;;;;3.50;99.90;;;;;;5020154;28;20163;-90
2022/04/01 03:45:10;;;;;;;;;;;3.50;99.90;;;;;;4999337;28;19921;-89
2022/04/01 03:47:52;;;;;;;;;;;3.50;99.90;;;;;;5011694;28;20008;-90
2022/04/01 03:50:22;;;;;;;;;;;3.50;99.90;;;;;;5021252;28;19921;-90
2022/04/01 03:52:48;;;;;;;;;;;3.40;99.90;;;;;;5019761;28;20393;-90
2022/04/01 03:55:14;;;;;;;;;;;3.40;99.90;;;;;;5000212;28;20008;-90
2022/04/01 03:57:40;;;;;;;;;;;3.40;99.90;;;;;;5002129;28;20496;-89
2022/04/01 04:00:13;;;;;;;;;;;3.40;99.90;;;;;;5019345;28;19996;-90
2022/04/01 04:02:40;;;;;;;;;;;3.40;99.90;;;;;;5023024;28;19959;-89
2022/04/01 04:05:07;;;;;;;;;;;3.40;99.90;;;;;;5016962;28;19913;-91
2022/04/01 04:07:33;;;;;;;;;;;3.40;99.90;;;;;;5012711;28;19973;-89
2022/04/01 04:09:58;;;;;;;;;;;3.30;99.90;;;;;;5025728;28;19956;-90
2022/04/01 04:12:25;;;;;;;;;;;3.30;99.90;;;;;;5018712;28;19939;-91
2022/04/01 04:14:51;;;;;;;;;;;3.30;99.90;;;;;;5015837;28;19936;-89
2022/04/01 04:17:20;;;;;;;;;;;3.30;99.90;;;;;;5006746;28;19922;-90
2022/04/01 04:20:04;;;;;;;;;;;3.30;99.90;;;;;;5017649;28;20297;-90
2022/04/01 04:22:32;;;;;;;;;;;3.30;99.90;;;;;;5029887;28;19944;-89
2022/04/01 04:24:58;;;;;;;;;;;3.30;99.90;;;;;;5008407;28;19947;-90
2022/04/01 04:27:29;;;;;;;;;;;3.40;99.90;;;;;;4999592;28;19917;-89
2022/04/01 04:30:01;;;;;;;;;;;3.30;99.90;;;;;;5019218;28;19933;-89
2022/04/01 04:32:29;;;;;;;;;;;3.40;99.90;;;;;;5020367;28;19928;-89
2022/04/01 04:34:56;;;;;;;;;;;3.40;99.90;;;;;;5026228;28;19943;-89
2022/04/01 04:37:25;;;;;;;;;;;3.40;99.90;;;;;;5022965;28;19926;-89
2022/04/01 04:39:51;;;;;;;;;;;3.40;99.90;;;;;;5024332;28;19956;-89
2022/04/01 04:42:17;;;;;;;;;;;3.40;99.90;;;;;;5013852;28;20014;-90
2022/04/01 04:44:46;;;;;;;;;;;3.50;99.90;;;;;;5020690;28;19918;-89
2022/04/01 04:47:12;;;;;;;;;;;3.50;99.90;;;;;;5017540;28;20389;-89
2022/04/01 04:49:41;;;;;;;;;;;3.50;99.90;;;;;;4998736;28;19921;-90
2022/04/01 04:52:08;;;;;;;;;;;3.50;99.90;;;;;;5024105;28;19924;-89
2022/04/01 04:54:38;;;;;;;;;;;3.50;99.90;;;;;;5003702;28;19928;-89
2022/04/01 04:57:04;;;;;;;;;;;3.40;99.90;;;;;;5014463;28;19917;-90
2022/04/01 04:59:30;;;;;;;;;;;3.40;99.90;;;;;;5009649;28;20178;-90
2022/04/01 05:02:05;;;;;;;;;;;3.40;99.90;;;;;;5003368;28;20274;-89
2022/04/01 05:04:33;;;;;;;;;;;3.40;99.90;;;;;;5016009;28;20019;-90
2022/04/01 05:07:10;;;;;;;;;;;3.40;99.90;;;;;;5027867;28;20381;-89
2022/04/01 05:09:51;;;;;;;;;;;3.40;99.90;;;;;;5015451;28;20396;-89
2022/04/01 05:12:20;;;;;;;;;;;3.40;99.90;;;;;;5036937;28;20288;-90
2022/04/01 05:15:09;;;;;;;;;;;3.30;99.90;;;;;;5033843;28;19913;-90
2022/04/01 05:17:36;;;;;;;;;;;3.30;99.90;;;;;;5016369;28;19917;-90
2022/04/01 05:20:15;;;;;;;;;;;3.30;99.90;;;;;;5022509;28;19918;-90
2022/04/01 05:22:47;;;;;;;;;;;3.30;99.90;;;;;;5009702;28;19924;-90
2022/04/01 05:25:16;;;;;;;;;;;3.30;99.90;;;;;;5021814;28;19920;-89
2022/04/01 05:27:46;;;;;;;;;;;3.30;99.90;;;;;;5025836;28;19976;-90
2022/04/01 05:30:20;;;;;;;;;;;3.30;99.90;;;;;;5020067;28;20369;-89
2022/04/01 05:32:59;;;;;;;;;;;3.30;99.90;;;;;;5019214;28;20325;-89
2022/04/01 05:35:32;;;;;;;;;;;3.30;99.90;;;;;;5022115;28;20587;-90
2022/04/01 05:37:59;;;;;;;;;;;3.30;99.90;;;;;;5030703;28;19936;-89
2022/04/01 05:40:26;;;;;;;;;;;3.20;99.90;;;;;;5047050;28;19924;-90
2022/04/01 05:42:52;;;;;;;;;;;3.20;99.90;;;;;;5017138;28;19920;-90
2022/04/01 05:45:19;;;;;;;;;;;3.20;99.90;;;;;;5028416;28;19928;-89
2022/04/01 05:47:46;;;;;;;;;;;3.20;99.90;;;;;;5022651;28;20336;-90
2022/04/01 05:50:13;;;;;;;;;;;3.20;99.90;;;;;;5004572;28;19986;-89
2022/04/01 05:52:40;;;;;;;;;;;3.20;99.90;;;;;;5021130;28;19921;-89
2022/04/01 05:55:07;;;;;;;;;;;3.20;99.90;;;;;;5007331;28;20401;-90
2022/04/01 05:57:32;;;;;;;;;;;3.30;99.90;;;;;;5031117;28;19917;-90
2022/04/01 05:59:58;;;;;;;;;;;3.20;99.90;;;;;;5012627;28;20288;-89
2022/04/01 06:02:42;;;;;;;;;;;3.20;99.90;;;;;;5006189;28;19924;-89
2022/04/01 06:05:13;;;;;;;;;;;3.20;99.90;;;;;;5041174;28;19952;-89
2022/04/01 06:07:53;;;;;;;;;;;3.30;99.90;;;;;;5024847;28;19999;-89
2022/04/01 06:10:33;;;;;;;;;;;3.30;99.90;;;;;;5013751;28;20019;-89
2022/04/01 06:12:59;;;;;;;;;;;3.30;99.90;;;;;;5030771;28;19939;-89
2022/04/01 06:15:24;;;;;;;;;;;3.30;99.90;;;;;;5029588;28;19913;-89
2022/04/01 06:17:56;;;;;;;;;;;3.30;99.90;;;;;;5018740;28;19914;-89
2022/04/01 06:20:24;;;;;;;;;;;3.20;99.90;;;;;;5014425;28;20385;-90
2022/04/01 06:22:54;;;;;;;;;;;3.20;99.90;;;;;;5017150;28;20471;-90
2022/04/01 06:25:26;;;;;;;;;;;3.20;99.90;;;;;;5028054;28;19916;-89
2022/04/01 06:27:55;;;;;;;;;;;3.20;99.90;;;;;;5029763;28;19920;-89
2022/04/01 06:30:21;;;;;;;;;;;3.20;99.90;;;;;;5013109;28;19977;-90
2022/04/01 06:32:49;;;;;;;;;;;3.20;99.90;;;;;;5023439;28;20384;-88
2022/04/01 06:35:24;;;;;;;;;;;3.20;99.90;;;;;;5046176;28;19921;-90
2022/04/01 06:37:50;;;;;;;;;;;3.20;99.90;;;;;;5036632;28;19909;-90
2022/04/01 06:40:17;;;;;;;;;;;3.20;99.90;;;;;;5043576;28;20003;-90
2022/04/01 06:42:44;;;;;;;;;;;3.10;99.90;;;;;;5010286;28;19929;-90
2022/04/01 06:45:10;;;;;;;;;;;3.10;99.90;;;;;;5027141;28;19959;-89
2022/04/01 06:47:36;;;;;;;;;;;3.10;99.90;;;;;;5016471;28;19917;-90
2022/04/01 06:50:03;;;;;;;;;;;3.00;99.90;;;;;;5022587;28;19921;-89
2022/04/01 06:52:28;;;;;;;;;;;3.00;99.90;;;;;;5004193;28;20464;-90
2022/04/01 06:54:54;;;;;;;;;;;3.00;99.90;;;;;;5010777;28;19910;-90
2022/04/01 06:57:20;;;;;;;;;;;3.00;99.90;;;;;;5019964;28;19917;-90
2022/04/01 06:59:46;;;;;;;;;;;3.00;99.90;;;;;;5026512;28;19943;-90
2022/04/01 07:02:11;;;;;;;;;;;3.00;99.90;;;;;;5020802;28;19964;-90
2022/04/01 07:04:37;;;;;;;;;;;3.00;99.90;;;;;;4998777;28;19929;-89
2022/04/01 07:07:03;;;;;;;;;;;3.00;99.90;;;;;;5022442;28;19920;-90
2022/04/01 07:09:28;;;;;;;;;;;3.10;99.90;;;;;;5051970;23;19968;-84
2022/04/01 07:11:55;;;;;;;;;;;3.00;99.90;;;;;;5072023;28;19924;-84
2022/04/01 07:14:21;;;;;;;;;;;3.10;99.90;;;;;;5058553;28;19916;-85
2022/04/01 07:16:46;;;;;;;;;;;3.10;99.90;;;;;;5073688;28;19916;-84
2022/04/01 07:19:12;;;;;;;;;;;3.10;99.90;;;;;;5047324;28;19980;-83
2022/04/01 07:21:37;;;;;;;;;;;3.10;99.90;;;;;;5046579;28;19912;-85
2022/04/01 07:24:04;;;;;;;;;;;3.10;99.90;;;;;;5070206;28;19938;-85
2022/04/01 07:26:29;;;;;;;;;;;3.10;99.90;;;;;;5075971;28;19908;-85
2022/04/01 07:28:55;;;;;;;;;;;3.10;99.90;;;;;;5060599;28;19951;-84
2022/04/01 07:34:06;;;;;;;;;;;3.20;99.90;;;;;;5067530;28;19965;-85
2022/04/01 07:36:33;;;;;;;;;;;3.20;99.90;;;;;;5057484;28;20326;-84
2022/04/01 07:38:58;;;;;;;;;;;3.30;99.90;;;;;;5066196;28;20003;-85
2022/04/01 07:41:24;;;;;;;;;;;3.30;99.90;;;;;;5065130;28;19990;-85
2022/04/01 07:43:50;;;;;;;;;;;3.30;99.90;;;;;;5039899;28;19913;-85
2022/04/01 07:46:15;;;;;;;;;;;3.30;99.90;;;;;;5073519;28;20494;-85
2022/04/01 07:48:41;;;;;;;;;;;3.30;99.90;;;;;;5055817;28;19917;-82
2022/04/01 07:51:07;;;;;;;;;;;3.30;99.90;;;;;;5081774;28;19900;-83
2022/04/01 07:53:32;;;;;;;;;;;3.30;99.90;;;;;;5056039;28;19912;-83
2022/04/01 07:55:58;;;;;;;;;;;3.30;99.90;;;;;;5067175;28;19919;-85
2022/04/01 07:58:23;;;;;;;;;;;3.30;99.90;;;;;;5035563;28;20392;-83
2022/04/01 08:00:49;;;;;;;;;;;3.30;99.90;;;;;;5045735;28;19924;-84
2022/04/01 08:03:14;;;;;;;;;;;3.40;99.90;;;;;;5043376;28;19963;-85
2022/04/01 08:05:40;;;;;;;;;;;3.50;99.90;;;;;;5062048;28;19920;-83
2022/04/01 08:08:05;;;;;;;;;;;3.60;99.90;;;;;;5062423;28;19962;-82
2022/04/01 08:10:31;;;;;;;;;;;3.70;99.90;;;;;;5064699;28;19998;-84
2022/04/01 08:12:56;;;;;;;;;;;3.90;99.90;;;;;;5045597;28;19921;-83
2022/04/01 08:15:23;;;;;;;;;;;4.10;99.90;;;;;;5039645;28;19923;-85
2022/04/01 08:17:48;;;;;;;;;;;4.20;99.90;;;;;;5045246;28;20381;-82
2022/04/01 08:20:14;;;;;;;;;;;4.30;99.90;;;;;;5063330;28;19962;-82
2022/04/01 08:22:40;;;;;;;;;;;4.40;99.90;;;;;;5060341;28;20062;-82
2022/04/01 08:25:06;;;;;;;;;;;4.40;99.90;;;;;;5064271;28;19978;-82
2022/04/01 08:27:32;;;;;;;;;;;4.50;99.90;;;;;;5039033;28;19935;-82
2022/04/01 08:29:59;;;;;;;;;;;4.50;99.90;;;;;;5035849;28;19970;-82
2022/04/01 08:32:25;;;;;;;;;;;4.60;99.90;;;;;;5061827;28;19921;-83
2022/04/01 08:34:51;;;;;;;;;;;4.50;99.90;;;;;;5044591;28;19920;-82
2022/04/01 08:37:17;;;;;;;;;;;4.40;99.90;;;;;;5052819;28;20384;-82
2022/04/01 08:39:43;;;;;;;;;;;4.40;99.90;;;;;;5044108;28;20296;-82
2022/04/01 08:42:09;;;;;;;;;;;4.40;99.90;;;;;;5043791;28;19966;-82
2022/04/01 08:44:37;;;;;;;;;;;4.40;99.90;;;;;;5076150;28;19917;-82
2022/04/01 08:47:03;;;;;;;;;;;4.50;99.90;;;;;;5059788;28;19958;-82
2022/04/01 08:49:29;;;;;;;;;;;4.50;99.90;;;;;;5067117;28;19917;-82
2022/04/01 08:51:56;;;;;;;;;;;4.70;99.90;;;;;;5046382;28;20344;-82
2022/04/01 08:54:21;;;;;;;;;;;4.70;99.90;;;;;;5073048;28;19917;-82
2022/04/01 08:56:46;;;;;;;;;;;4.70;99.90;;;;;;5074561;28;20023;-82
2022/04/01 08:59:12;;;;;;;;;;;4.90;99.90;;;;;;5069660;28;20269;-82
2022/04/01 09:01:39;;;;;;;;;;;4.90;99.90;;;;;;5069533;28;20334;-82
2022/04/01 09:04:14;;;;;;;;;;;4.90;99.90;;;;;;5065176;28;19957;-82
2022/04/01 09:06:41;;;;;;;;;;;4.90;99.90;;;;;;5072593;28;19920;-82
2022/04/01 09:09:19;;;;;;;;;;;4.80;99.90;;;;;;5062226;28;19920;-81
2022/04/01 09:12:02;;;;;;;;;;;4.70;99.90;;;;;;5059570;28;19964;-82
2022/04/01 09:14:27;;;;;;;;;;;4.70;99.90;;;;;;5058284;28;19916;-82
2022/04/01 09:16:53;;;;;;;;;;;4.60;99.90;;;;;;5063255;28;20411;-82
2022/04/01 09:19:27;;;;;;;;;;;4.60;99.90;;;;;;5063421;28;19920;-82
2022/04/01 09:21:53;;;;;;;;;;;4.60;99.90;;;;;;5068102;28;19912;-82
2022/04/01 09:24:18;;;;;;;;;;;4.70;99.90;;;;;;5057038;28;19909;-82
2022/04/01 09:26:44;;;;;;;;;;;4.70;99.90;;;;;;5069543;28;19983;-82
2022/04/01 09:29:10;;;;;;;;;;;4.70;99.90;;;;;;5061267;28;19920;-82
2022/04/01 09:31:37;;;;;;;;;;;4.70;99.90;;;;;;5064369;28;19916;-82
2022/04/01 09:34:06;;;;;;;;;;;4.70;99.90;;;;;;5071988;28;19917;-82
2022/04/01 09:36:38;;;;;;;;;;;4.70;99.90;;;;;;5062104;28;19913;-82
2022/04/01 09:39:07;;;;;;;;;;;4.70;99.90;;;;;;5065642;28;19916;-82
2022/04/01 09:41:37;;;;;;;;;;;4.60;99.90;;;;;;5056226;28;19909;-82
2022/04/01 09:44:03;;;;;;;;;;;4.40;99.90;;;;;;5070387;28;20323;-82
2022/04/01 09:46:29;;;;;;;;;;;4.40;99.90;;;;;;5063333;28;19913;-82
2022/04/01 09:48:55;;;;;;;;;;;4.30;99.90;;;;;;5057388;28;20323;-82
2022/04/01 09:51:21;;;;;;;;;;;4.30;99.90;;;;;;5053097;28;20475;-82
2022/04/01 09:53:53;;;;;;;;;;;4.10;99.90;;;;;;5060491;28;20260;-82
2022/04/01 09:56:34;;;;;;;;;;;4.00;99.90;;;;;;5069429;28;19919;-82
2022/04/01 09:58:59;;;;;;;;;;;3.90;99.90;;;;;;5050091;28;19916;-82
2022/04/01 10:01:25;;;;;;;;;;;3.80;99.90;;;;;;5052052;28;19913;-82
2022/04/01 10:03:50;;;;;;;;;;;3.80;99.90;;;;;;5067534;28;20007;-82
2022/04/01 10:06:16;;;;;;;;;;;3.80;99.90;;;;;;5042322;28;19913;-82
2022/04/01 10:08:42;;;;;;;;;;;3.90;99.90;;;;;;5065828;28;19916;-82
2022/04/01 10:11:07;;;;;;;;;;;3.80;99.90;;;;;;5050630;28;19932;-82
2022/04/01 10:13:34;;;;;;;;;;;3.70;99.90;;;;;;5050136;28;19925;-82
2022/04/01 10:15:59;;;;;;;;;;;3.70;99.90;;;;;;5055884;28;19917;-82
2022/04/01 10:18:26;;;;;;;;;;;3.70;99.90;;;;;;5053264;28;20024;-82
2022/04/01 10:20:54;;;;;;;;;;;3.80;99.90;;;;;;5046914;28;19916;-82
2022/04/01 10:23:21;;;;;;;;;;;3.70;99.90;;;;;;5059955;28;19947;-82
2022/04/01 10:25:50;;;;;;;;;;;3.80;99.90;;;;;;5067414;28;19966;-82
2022/04/01 10:28:16;;;;;;;;;;;3.70;99.90;;;;;;5059010;28;20305;-81
2022/04/01 10:30:50;;;;;;;;;;;3.80;99.90;;;;;;5047576;28;19916;-82
2022/04/01 10:33:20;;;;;;;;;;;3.70;99.90;;;;;;5057594;28;19919;-82
2022/04/01 10:35:46;;;;;;;;;;;3.70;99.90;;;;;;5071095;28;20336;-82
2022/04/01 10:38:15;;;;;;;;;;;3.70;99.90;;;;;;5057444;28;19917;-82
2022/04/01 10:40:42;;;;;;;;;;;3.60;99.90;;;;;;5043963;28;19925;-81
2022/04/01 10:43:12;;;;;;;;;;;3.60;99.90;;;;;;5063089;28;20035;-84
2022/04/01 10:45:37;;;;;;;;;;;3.40;99.90;;;;;;5054318;28;19917;-84
2022/04/01 10:51:44;;;;;;;;;;;3.50;99.90;;;;;;5064864;28;19920;-82
2022/04/01 10:54:12;;;;;;;;;;;3.40;99.90;;;;;;5053303;28;19968;-81
2022/04/01 10:56:38;;;;;;;;;;;3.40;99.90;;;;;;5060688;28;19916;-83
2022/04/01 10:59:03;;;;;;;;;;;3.50;99.90;;;;;;5058615;28;20391;-83
2022/04/01 11:01:29;;;;;;;;;;;3.50;99.90;;;;;;5066252;28;19913;-82
2022/04/01 11:04:21;;;;;;;;;;;3.50;99.90;;;;;;5060145;28;19913;-82
2022/04/01 11:07:03;;;;;;;;;;;3.50;99.90;;;;;;5058342;28;20357;-82
2022/04/01 11:09:45;;;;;;;;;;;3.50;99.90;;;;;;5062002;28;20412;-82
2022/04/01 11:12:17;;;;;;;;;;;3.50;99.90;;;;;;5032259;28;19924;-84
2022/04/01 11:17:35;;;;;;;;;;;3.50;99.90;;;;;;5047336;28;19912;-83
2022/04/01 11:20:13;;;;;;;;;;;3.50;99.90;;;;;;5059368;28;19962;-83
2022/04/01 11:22:43;;;;;;;;;;;3.50;99.90;;;;;;5067639;28;19913;-81
2022/04/01 11:25:24;;;;;;;;;;;3.50;99.90;;;;;;5053129;28;19912;-83
2022/04/01 11:27:58;;;;;;;;;;;3.50;99.90;;;;;;5061474;28;20444;-83
2022/04/01 11:30:25;;;;;;;;;;;3.60;99.90;;;;;;5065464;28;19923;-81
2022/04/01 11:32:54;;;;;;;;;;;3.70;99.90;;;;;;5052377;28;20313;-81
2022/04/01 11:35:21;;;;;;;;;;;3.60;99.90;;;;;;5062319;28;19917;-81
2022/04/01 11:37:47;;;;;;;;;;;3.50;99.90;;;;;;5054662;28;19919;-83
2022/04/01 11:40:14;;;;;;;;;;;3.40;99.90;;;;;;5054023;28;19999;-83
2022/04/01 11:42:51;;;;;;;;;;;3.40;99.90;;;;;;5061953;28;19913;-83
2022/04/01 11:45:17;;;;;;;;;;;3.30;99.90;;;;;;5055764;28;20324;-83
2022/04/01 11:47:42;;;;;;;;;;;3.30;99.90;;;;;;5055425;28;19959;-83
2022/04/01 11:50:09;;;;;;;;;;;3.30;99.90;;;;;;5071030;28;19923;-83
2022/04/01 11:52:45;;;;;;;;;;;3.20;99.90;;;;;;5057971;28;19920;-83
2022/04/01 11:55:11;;;;;;;;;;;3.20;99.90;;;;;;5063749;28;19920;-83
2022/04/01 11:57:37;;;;;;;;;;;3.20;99.90;;;;;;5057010;28;19942;-83
2022/04/01 12:00:10;;;;;;;;;;;3.20;99.90;;;;;;5050747;28;20368;-83
2022/04/01 12:02:36;;;;;;;;;;;3.30;99.90;;;;;;5045016;28;19920;-83
2022/04/01 12:05:02;;;;;;;;;;;3.30;99.90;;;;;;5052839;28;19913;-83
2022/04/01 12:10:17;;;;;;;;;;;3.20;99.90;;;;;;5048713;28;19933;-83
2022/04/01 12:12:51;;;;;;;;;;;3.20;99.90;;;;;;5063240;28;20304;-83
2022/04/01 12:15:17;;;;;;;;;;;3.20;99.90;;;;;;5056480;28;19956;-84
2022/04/01 12:17:49;;;;;;;;;;;3.20;99.90;;;;;;5076037;28;19913;-84
2022/04/01 12:20:15;;;;;;;;;;;3.20;99.90;;;;;;5076992;28;19924;-84
2022/04/01 12:22:40;;;;;;;;;;;3.20;99.90;;;;;;5063540;28;19925;-84
2022/04/01 12:25:06;;;;;;;;;;;3.30;99.90;;;;;;5070721;28;19943;-84
2022/04/01 12:27:32;;;;;;;;;;;3.40;99.90;;;;;;5050279;28;19924;-84
2022/04/01 12:29:58;;;;;;;;;;;3.50;99.90;;;;;;5071984;28;19990;-84
2022/04/01 12:32:24;;;;;;;;;;;3.60;99.90;;;;;;5084116;28;19917;-83
2022/04/01 12:34:51;;;;;;;;;;;3.60;99.90;;;;;;5068108;28;19979;-81
2022/04/01 12:37:17;;;;;;;;;;;3.60;99.90;;;;;;5052624;28;19916;-83
2022/04/01 12:39:45;;;;;;;;;;;3.70;99.90;;;;;;5060944;28;19919;-83
2022/04/01 12:42:11;;;;;;;;;;;3.60;99.90;;;;;;5054416;28;19920;-83
2022/04/01 12:44:39;;;;;;;;;;;3.60;99.90;;;;;;5056203;28;19917;-81
2022/04/01 12:47:05;;;;;;;;;;;3.50;98.70;;;;;;5062245;28;19920;-84
2022/04/01 12:49:34;;;;;;;;;;;3.40;99.90;;;;;;5061128;28;19981;-83
2022/04/01 12:52:01;;;;;;;;;;;3.40;99.90;;;;;;5060546;28;19986;-83
2022/04/01 12:54:35;;;;;;;;;;;3.50;99.90;;;;;;5061605;28;19921;-83
2022/04/01 12:57:02;;;;;;;;;;;3.50;99.90;;;;;;5073055;28;19920;-83
2022/04/01 12:59:32;;;;;;;;;;;3.50;99.90;;;;;;5056817;28;20007;-83
2022/04/01 13:02:00;;;;;;;;;;;3.50;99.90;;;;;;5057847;28;19916;-83
2022/04/01 13:04:26;;;;;;;;;;;3.60;99.90;;;;;;5064198;28;19923;-83
2022/04/01 13:07:04;;;;;;;;;;;3.60;99.90;;;;;;5060881;28;19913;-83
2022/04/01 13:11:58;;;;;;;;;;;3.70;99.90;;;;;;5080937;28;19924;-79
2022/04/01 13:14:25;;;;;;;;;;;3.70;99.70;;;;;;5094867;28;19933;-80
2022/04/01 13:16:51;;;;;;;;;;;3.70;99.90;;;;;;5090955;28;19912;-80
2022/04/01 13:19:21;;;;;;;;;;;3.60;99.80;;;;;;5064435;28;19967;-80
2022/04/01 13:21:47;;;;;;;;;;;3.60;98.80;;;;;;5069694;28;19916;-80
2022/04/01 13:24:19;;;;;;;;;;;3.50;99.90;;;;;;5071297;28;19928;-80
2022/04/01 13:26:44;;;;;;;;;;;3.50;99.60;;;;;;5086130;28;19912;-80
2022/04/01 13:29:10;;;;;;;;;;;3.40;99.90;;;;;;5072768;28;20290;-80
2022/04/01 13:31:35;;;;;;;;;;;3.20;99.80;;;;;;5082788;28;19920;-80
2022/04/01 13:34:01;;;;;;;;;;;3.20;99.90;;;;;;5075487;28;19916;-80
2022/04/01 13:36:26;;;;;;;;;;;3.20;99.70;;;;;;5066332;28;19924;-80
2022/04/01 13:38:52;;;;;;;;;;;3.20;99.90;;;;;;5061712;28;20449;-81
2022/04/01 13:41:17;;;;;;;;;;;3.10;99.90;;;;;;5072826;28;19916;-80
2022/04/01 13:43:43;;;;;;;;;;;3.10;99.90;;;;;;5071117;28;19961;-80
2022/04/01 13:46:08;;;;;;;;;;;3.10;99.90;;;;;;5072199;28;20294;-81
2022/04/01 13:48:34;;;;;;;;;;;3.10;99.90;;;;;;5084929;28;19920;-81
2022/04/01 13:51:02;;;;;;;;;;;3.10;99.90;;;;;;5067580;28;20015;-81
2022/04/01 13:53:28;;;;;;;;;;;3.10;99.90;;;;;;5061726;28;19966;-80
2022/04/01 13:55:54;;;;;;;;;;;3.20;99.90;;;;;;5077291;28;20366;-81
2022/04/01 13:58:19;;;;;;;;;;;3.20;99.90;;;;;;5064803;28;20036;-81
2022/04/01 14:00:45;;;;;;;;;;;3.30;99.90;;;;;;5066103;28;19952;-80
2022/04/01 14:03:10;;;;;;;;;;;3.20;99.90;;;;;;5053980;28;19962;-80
2022/04/01 14:05:36;;;;;;;;;;;3.20;99.90;;;;;;5074315;28;20346;-80
2022/04/01 14:08:01;;;;;;;;;;;3.30;99.90;;;;;;5058688;28;19916;-81
2022/04/01 14:10:27;;;;;;;;;;;3.20;98.70;;;;;;5063235;28;20341;-80
2022/04/01 14:12:52;;;;;;;;;;;3.20;98.80;;;;;;5055445;28;19920;-81
2022/04/01 14:15:18;;;;;;;;;;;3.40;99.60;;;;;;5063820;28;20371;-81
2022/04/01 14:17:44;;;;;;;;;;;3.60;99.60;;;;;;5082293;28;19938;-81
2022/04/01 14:20:11;;;;;;;;;;;3.80;98.40;;;;;;5069008;28;19935;-81
2022/04/01 14:22:36;;;;;;;;;;;3.90;98.70;;;;;;5067538;28;19985;-80
2022/04/01 14:25:02;;;;;;;;;;;3.90;94.70;;;;;;5077562;28;19927;-80
2022/04/01 14:27:28;;;;;;;;;;;3.70;98.10;;;;;;5083942;28;19912;-80
2022/04/01 14:32:38;;;;;;;;;;;3.60;99.00;;;;;;5083390;28;20282;-80
2022/04/01 14:35:03;;;;;;;;;;;3.80;99.90;;;;;;5080632;28;19912;-80
2022/04/01 14:37:29;;;;;;;;;;;4.00;97.50;;;;;;5066853;28;19917;-81
2022/04/01 14:39:54;;;;;;;;;;;4.10;96.50;;;;;;5072304;28;19916;-80
2022/04/01 14:42:20;;;;;;;;;;;4.10;97.00;;;;;;5090773;28;19916;-80
2022/04/01 14:44:46;;;;;;;;;;;4.10;95.70;;;;;;5086006;28;20381;-80
2022/04/01 14:47:11;;;;;;;;;;;4.10;97.30;;;;;;5071551;28;19923;-80
2022/04/01 14:49:37;;;;;;;;;;;4.10;97.20;;;;;;5085543;28;20276;-80
2022/04/01 14:52:04;;;;;;;;;;;4.20;99.10;;;;;;5074365;28;19960;-80
2022/04/01 14:54:29;;;;;;;;;;;4.20;96.70;;;;;;5071566;28;19923;-80